Time;durP1;ratioP1;P1;durP2;ratioP2;P2;SDS_P1;SDS_P2;PMS_P1;PMS_P2;Temp;Humidity;BMP_temperature;BMP_pressure;BME280_temperature;BME280_humidity;BME280_pressure;Samples;Min_cycle;Max_cycle;Signal;HPM_P1;HPM_P2
2021/04/03 00:01:32;;;;;;;;;;;;;;;;;;5024688;28;19964;-59
2021/04/03 00:03:59;;;;;;;;;;;;;;;;;;5020400;28;19926;-63
2021/04/03 00:06:25;;;;;;;;;;;;;;;;;;5015167;28;19932;-60
2021/04/03 00:08:52;;;;;;;;;;;;;;;;;;5014782;28;19947;-63
2021/04/03 00:11:21;;;;;;;;;;;;;;;;;;5015250;28;19933;-62
2021/04/03 00:13:47;;;;;;;;;;;;;;;;;;5023007;28;19925;-65
2021/04/03 00:16:14;;;;;;;;;;;;;;;;;;5022426;28;19929;-63
2021/04/03 00:18:40;;;;;;;;;;;;;;;;;;5024553;28;20350;-63
2021/04/03 00:21:07;;;;;;;;;;;;;;;;;;5021839;28;20007;-60
2021/04/03 00:23:33;;;;;;;;;;;;;;;;;;5019874;28;20008;-63
2021/04/03 00:26:00;;;;;;;;;;;;;;;;;;5020464;28;19929;-61
2021/04/03 00:28:26;;;;;;;;;;;;;;;;;;5022734;28;19932;-62
2021/04/03 00:30:53;;;;;;;;;;;;;;;;;;5018832;28;19938;-63
2021/04/03 00:33:19;;;;;;;;;;;;;;;;;;5015155;28;19987;-62
2021/04/03 00:35:48;;;;;;;;;;;;;;;;;;5014070;28;19926;-64
2021/04/03 00:38:15;;;;;;;;;;;;;;;;;;5013374;28;19933;-61
2021/04/03 00:40:41;;;;;;;;;;;;;;;;;;5022171;28;19925;-63
2021/04/03 00:43:08;;;;;;;;;;;;;;;;;;5023155;28;19940;-63
2021/04/03 00:45:35;;;;;;;;;;;;;;;;;;5020508;28;20020;-63
2021/04/03 00:48:02;;;;;;;;;;;;;;;;;;5025035;28;19952;-62
2021/04/03 00:50:28;;;;;;;;;;;;;;;;;;5023050;28;19925;-62
2021/04/03 00:52:55;;;;;;;;;;;;;;;;;;5027744;28;19925;-62
2021/04/03 00:55:21;;;;;;;;;;;;;;;;;;5014486;28;19925;-63
2021/04/03 00:57:49;;;;;;;;;;;;;;;;;;5027422;28;19925;-64
2021/04/03 01:00:15;;;;;;;;;;;;;;;;;;5026791;28;19932;-63
2021/04/03 01:02:42;;;;;;;;;;;;;;;;;;5020733;28;19933;-62
2021/04/03 01:05:08;;;;;;;;;;;;;;;;;;5017147;28;19925;-60
2021/04/03 01:07:35;;;;;;;;;;;;;;;;;;5020134;28;19932;-61
2021/04/03 01:10:01;;;;;;;;;;;;;;;;;;5028798;28;19925;-64
2021/04/03 01:12:28;;;;;;;;;;;;;;;;;;5022928;28;19972;-64
2021/04/03 01:14:54;;;;;;;;;;;;;;;;;;5021295;28;19927;-63
2021/04/03 01:17:21;;;;;;;;;;;;;;;;;;5017552;28;19929;-62
2021/04/03 01:19:47;;;;;;;;;;;;;;;;;;5011675;28;19925;-60
2021/04/03 01:22:14;;;;;;;;;;;;;;;;;;5021145;28;19925;-63
2021/04/03 01:24:40;;;;;;;;;;;;;;;;;;5013582;28;19940;-62
2021/04/03 01:27:07;;;;;;;;;;;;;;;;;;5012397;28;19925;-61
2021/04/03 01:29:33;;;;;;;;;;;;;;;;;;5024701;28;20016;-64
2021/04/03 01:32:00;;;;;;;;;;;;;;;;;;5019635;28;19935;-62
2021/04/03 01:34:26;;;;;;;;;;;;;;;;;;5023142;28;19929;-61
2021/04/03 01:36:53;;;;;;;;;;;;;;;;;;5012664;28;19925;-60
2021/04/03 01:39:19;;;;;;;;;;;;;;;;;;5020195;28;19927;-62
2021/04/03 01:41:46;;;;;;;;;;;;;;;;;;5012177;28;19932;-63
2021/04/03 01:44:12;;;;;;;;;;;;;;;;;;5018142;28;20300;-62
2021/04/03 01:46:39;;;;;;;;;;;;;;;;;;5018459;28;20024;-61
2021/04/03 01:49:06;;;;;;;;;;;;;;;;;;5014691;28;20007;-61
2021/04/03 01:51:32;;;;;;;;;;;;;;;;;;5018807;28;20324;-66
2021/04/03 01:53:59;;;;;;;;;;;;;;;;;;5019246;28;20067;-64
2021/04/03 01:56:25;;;;;;;;;;;;;;;;;;5014559;28;20008;-62
2021/04/03 01:58:52;;;;;;;;;;;;;;;;;;5016660;28;19926;-63
2021/04/03 02:01:18;;;;;;;;;;;;;;;;;;5017226;28;19970;-63
2021/04/03 02:03:45;;;;;;;;;;;;;;;;;;5009663;28;20397;-63
2021/04/03 02:06:11;;;;;;;;;;;;;;;;;;5006921;28;19972;-61
2021/04/03 02:08:38;;;;;;;;;;;;;;;;;;5023035;28;19925;-60
2021/04/03 02:11:04;;;;;;;;;;;;;;;;;;5016914;28;20011;-58
2021/04/03 02:13:31;;;;;;;;;;;;;;;;;;5013235;28;20136;-61
2021/04/03 02:15:57;;;;;;;;;;;;;;;;;;5016947;28;19925;-62
2021/04/03 02:18:24;;;;;;;;;;;;;;;;;;5023968;28;19973;-60
2021/04/03 02:20:50;;;;;;;;;;;;;;;;;;5020667;28;19944;-61
2021/04/03 02:23:17;;;;;;;;;;;;;;;;;;5015413;28;19956;-61
2021/04/03 02:25:43;;;;;;;;;;;;;;;;;;5006188;28;19926;-62
2021/04/03 02:28:10;;;;;;;;;;;;;;;;;;5014182;28;19933;-62
2021/04/03 02:30:36;;;;;;;;;;;;;;;;;;5025534;28;20432;-61
2021/04/03 02:33:03;;;;;;;;;;;;;;;;;;5021020;28;19932;-62
2021/04/03 02:35:29;;;;;;;;;;;;;;;;;;5016102;28;20317;-59
2021/04/03 02:37:57;;;;;;;;;;;;;;;;;;5021131;28;19936;-62
2021/04/03 02:40:23;;;;;;;;;;;;;;;;;;5025132;28;19925;-61
2021/04/03 02:42:50;;;;;;;;;;;;;;;;;;5011914;28;19925;-65
2021/04/03 02:45:16;;;;;;;;;;;;;;;;;;5004454;28;19929;-67
2021/04/03 02:47:43;;;;;;;;;;;;;;;;;;5010754;28;19952;-62
2021/04/03 02:50:09;;;;;;;;;;;;;;;;;;5023574;28;19935;-62
2021/04/03 02:52:36;;;;;;;;;;;;;;;;;;5016912;28;19933;-62
2021/04/03 02:55:02;;;;;;;;;;;;;;;;;;5017147;28;19932;-62
2021/04/03 02:57:29;;;;;;;;;;;;;;;;;;5012714;28;19926;-62
2021/04/03 02:59:55;;;;;;;;;;;;;;;;;;5013227;28;19960;-62
2021/04/03 03:02:23;;;;;;;;;;;;;;;;;;5015555;28;19993;-62
2021/04/03 03:04:49;;;;;;;;;;;;;;;;;;5015601;28;20352;-60
2021/04/03 03:07:16;;;;;;;;;;;;;;;;;;5022655;28;19929;-60
2021/04/03 03:09:42;;;;;;;;;;;;;;;;;;5023184;28;20016;-63
2021/04/03 03:12:11;;;;;;;;;;;;;;;;;;5013116;28;19929;-62
2021/04/03 03:14:38;;;;;;;;;;;;;;;;;;5013343;28;19930;-62
2021/04/03 03:17:04;;;;;;;;;;;;;;;;;;5020016;28;19925;-60
2021/04/03 03:19:31;;;;;;;;;;;;;;;;;;5018537;28;19932;-62
2021/04/03 03:21:57;;;;;;;;;;;;;;;;;;5016549;28;19929;-64
2021/04/03 03:24:23;;;;;;;;;;;;;;;;;;5010999;28;19926;-62
2021/04/03 03:26:50;;;;;;;;;;;;;;;;;;5014712;28;19925;-63
2021/04/03 03:29:16;;;;;;;;;;;;;;;;;;5011963;28;19933;-62
2021/04/03 03:31:43;;;;;;;;;;;;;;;;;;5015275;28;19925;-59
2021/04/03 03:34:09;;;;;;;;;;;;;;;;;;5018600;28;19925;-64
2021/04/03 03:36:36;;;;;;;;;;;;;;;;;;5016569;28;19964;-62
2021/04/03 03:39:02;;;;;;;;;;;;;;;;;;5014656;28;20024;-63
2021/04/03 03:41:29;;;;;;;;;;;;;;;;;;5025387;28;20399;-59
2021/04/03 03:43:55;;;;;;;;;;;;;;;;;;5028026;28;20061;-62
2021/04/03 03:46:22;;;;;;;;;;;;;;;;;;5016607;28;19930;-65
2021/04/03 03:48:48;;;;;;;;;;;;;;;;;;5022839;28;19940;-62
2021/04/03 03:51:15;;;;;;;;;;;;;;;;;;5028384;28;20011;-64
2021/04/03 03:53:41;;;;;;;;;;;;;;;;;;5023986;28;19941;-64
2021/04/03 03:56:08;;;;;;;;;;;;;;;;;;5027260;28;19925;-61
2021/04/03 03:58:34;;;;;;;;;;;;;;;;;;5023505;28;19929;-64
2021/04/03 04:01:01;;;;;;;;;;;;;;;;;;5019151;28;19936;-65
2021/04/03 04:03:27;;;;;;;;;;;;;;;;;;5029751;28;19925;-60
2021/04/03 04:05:54;;;;;;;;;;;;;;;;;;5020265;28;19929;-62
2021/04/03 04:08:21;;;;;;;;;;;;;;;;;;5032816;22;19925;-65
2021/04/03 04:10:47;;;;;;;;;;;;;;;;;;5068294;28;20320;-66
2021/04/03 04:13:14;;;;;;;;;;;;;;;;;;5064627;28;20019;-64
2021/04/03 04:15:40;;;;;;;;;;;;;;;;;;5062221;28;20023;-65
2021/04/03 04:18:07;;;;;;;;;;;;;;;;;;5058573;28;20377;-65
2021/04/03 04:20:33;;;;;;;;;;;;;;;;;;5050926;28;19925;-65
2021/04/03 04:23:00;;;;;;;;;;;;;;;;;;5047531;28;19925;-64
2021/04/03 04:25:26;;;;;;;;;;;;;;;;;;5051400;28;19929;-64
2021/04/03 04:27:53;;;;;;;;;;;;;;;;;;5045750;28;19925;-67
2021/04/03 04:30:19;;;;;;;;;;;;;;;;;;5043466;28;19931;-65
2021/04/03 04:32:46;;;;;;;;;;;;;;;;;;5043789;28;19925;-65
2021/04/03 04:35:12;;;;;;;;;;;;;;;;;;5042674;28;19925;-66
2021/04/03 04:37:39;;;;;;;;;;;;;;;;;;5048212;28;20377;-65
2021/04/03 04:40:05;;;;;;;;;;;;;;;;;;5048140;28;19925;-68
2021/04/03 04:42:32;;;;;;;;;;;;;;;;;;5049339;28;20388;-66
2021/04/03 04:44:58;;;;;;;;;;;;;;;;;;5046993;28;19925;-66
2021/04/03 04:47:25;;;;;;;;;;;;;;;;;;5049906;28;20384;-66
2021/04/03 04:49:51;;;;;;;;;;;;;;;;;;5041209;28;19975;-65
2021/04/03 04:52:18;;;;;;;;;;;;;;;;;;5041854;28;19928;-66
2021/04/03 04:54:44;;;;;;;;;;;;;;;;;;5042768;28;19925;-66
2021/04/03 04:57:11;;;;;;;;;;;;;;;;;;5043781;28;19928;-63
2021/04/03 04:59:37;;;;;;;;;;;;;;;;;;5050414;28;19931;-66
2021/04/03 05:02:04;;;;;;;;;;;;;;;;;;5045282;28;19962;-65
2021/04/03 05:04:30;;;;;;;;;;;;;;;;;;5040522;28;19935;-66
2021/04/03 05:06:57;;;;;;;;;;;;;;;;;;5043908;28;19929;-64
2021/04/03 05:09:23;;;;;;;;;;;;;;;;;;5046478;28;19936;-66
2021/04/03 05:11:50;;;;;;;;;;;;;;;;;;5046263;28;19985;-66
2021/04/03 05:14:16;;;;;;;;;;;;;;;;;;5050359;28;19924;-66
2021/04/03 05:16:43;;;;;;;;;;;;;;;;;;5050294;28;19929;-67
2021/04/03 05:19:09;;;;;;;;;;;;;;;;;;5048503;28;20433;-66
2021/04/03 05:21:36;;;;;;;;;;;;;;;;;;5046283;28;19925;-67
2021/04/03 05:24:02;;;;;;;;;;;;;;;;;;5048818;28;20360;-66
2021/04/03 05:26:29;;;;;;;;;;;;;;;;;;5044238;28;19936;-66
2021/04/03 05:28:55;;;;;;;;;;;;;;;;;;5044053;28;20082;-66
2021/04/03 05:31:22;;;;;;;;;;;;;;;;;;5046231;28;19924;-66
2021/04/03 05:33:48;;;;;;;;;;;;;;;;;;5046101;28;20382;-66
2021/04/03 05:36:15;;;;;;;;;;;;;;;;;;5046749;28;19925;-66
2021/04/03 05:38:41;;;;;;;;;;;;;;;;;;5049307;28;20303;-66
2021/04/03 05:41:07;;;;;;;;;;;;;;;;;;5045259;28;20028;-68
2021/04/03 05:43:34;;;;;;;;;;;;;;;;;;5050179;28;19932;-65
2021/04/03 05:46:00;;;;;;;;;;;;;;;;;;5046521;28;19929;-66
2021/04/03 05:48:27;;;;;;;;;;;;;;;;;;5038188;28;19931;-65
2021/04/03 05:50:54;;;;;;;;;;;;;;;;;;5039989;28;19929;-65
2021/04/03 05:53:20;;;;;;;;;;;;;;;;;;5042983;28;19928;-65
2021/04/03 05:55:47;;;;;;;;;;;;;;;;;;5043760;28;20373;-65
2021/04/03 05:58:13;;;;;;;;;;;;;;;;;;5044031;28;19925;-65
2021/04/03 06:00:39;;;;;;;;;;;;;;;;;;5044056;28;19933;-66
2021/04/03 06:03:06;;;;;;;;;;;;;;;;;;5044896;28;20300;-66
2021/04/03 06:05:33;;;;;;;;;;;;;;;;;;5045790;28;19935;-65
2021/04/03 06:07:59;;;;;;;;;;;;;;;;;;5043567;28;19968;-65
2021/04/03 06:10:25;;;;;;;;;;;;;;;;;;5041667;28;19931;-65
2021/04/03 06:12:52;;;;;;;;;;;;;;;;;;5045781;28;19925;-67
2021/04/03 06:15:18;;;;;;;;;;;;;;;;;;5049923;28;19935;-67
2021/04/03 06:17:45;;;;;;;;;;;;;;;;;;5046875;28;20016;-66
2021/04/03 06:20:12;;;;;;;;;;;;;;;;;;5048724;28;19925;-67
2021/04/03 06:22:38;;;;;;;;;;;;;;;;;;5044921;28;19925;-67
2021/04/03 06:25:04;;;;;;;;;;;;;;;;;;5040557;28;19925;-67
2021/04/03 06:27:31;;;;;;;;;;;;;;;;;;5037219;28;20012;-66
2021/04/03 06:29:58;;;;;;;;;;;;;;;;;;5045991;28;20011;-66
2021/04/03 06:32:25;;;;;;;;;;;;;;;;;;5041149;28;20381;-66
2021/04/03 06:34:53;;;;;;;;;;;;;;;;;;5037885;28;19925;-66
2021/04/03 06:37:19;;;;;;;;;;;;;;;;;;5042481;28;19929;-65
2021/04/03 06:39:46;;;;;;;;;;;;;;;;;;5047089;28;20103;-65
2021/04/03 06:42:12;;;;;;;;;;;;;;;;;;5048977;28;19929;-66
2021/04/03 06:44:39;;;;;;;;;;;;;;;;;;5042740;28;20224;-66
2021/04/03 06:47:05;;;;;;;;;;;;;;;;;;5037412;28;20304;-66
2021/04/03 06:49:32;;;;;;;;;;;;;;;;;;5045276;28;19928;-66
2021/04/03 06:51:58;;;;;;;;;;;;;;;;;;5048051;28;20019;-66
2021/04/03 06:54:25;;;;;;;;;;;;;;;;;;5046336;28;19931;-66
2021/04/03 06:56:51;;;;;;;;;;;;;;;;;;5042618;28;19924;-67
2021/04/03 06:59:18;;;;;;;;;;;;;;;;;;5035241;28;19990;-66
2021/04/03 07:01:44;;;;;;;;;;;;;;;;;;5048574;28;19928;-66
2021/04/03 07:04:11;;;;;;;;;;;;;;;;;;5050398;28;19924;-65
2021/04/03 07:06:37;;;;;;;;;;;;;;;;;;5046311;28;19931;-66
2021/04/03 07:09:04;;;;;;;;;;;;;;;;;;5046020;28;20015;-66
2021/04/03 07:11:30;;;;;;;;;;;;;;;;;;5051027;28;19940;-66
2021/04/03 07:13:57;;;;;;;;;;;;;;;;;;5043934;28;20178;-66
2021/04/03 07:16:23;;;;;;;;;;;;;;;;;;5048736;28;19933;-65
2021/04/03 07:18:50;;;;;;;;;;;;;;;;;;5042366;28;20023;-67
2021/04/03 07:21:16;;;;;;;;;;;;;;;;;;5044815;28;19944;-67
2021/04/03 07:23:43;;;;;;;;;;;;;;;;;;5048223;28;19933;-66
2021/04/03 07:26:12;;;;;;;;;;;;;;;;;;5044691;28;19951;-66
2021/04/03 07:28:38;;;;;;;;;;;;;;;;;;5050044;28;19949;-66
2021/04/03 07:31:05;;;;;;;;;;;;;;;;;;5051136;28;20320;-67
2021/04/03 07:33:32;;;;;;;;;;;;;;;;;;5043255;28;19944;-65
2021/04/03 07:35:58;;;;;;;;;;;;;;;;;;5048863;28;19925;-65
2021/04/03 07:38:25;;;;;;;;;;;;;;;;;;5051690;28;19925;-66
2021/04/03 07:40:51;;;;;;;;;;;;;;;;;;5051068;28;19928;-65
2021/04/03 07:43:18;;;;;;;;;;;;;;;;;;5047617;28;19973;-66
2021/04/03 07:45:46;;;;;;;;;;;;;;;;;;5051522;28;19925;-67
2021/04/03 07:48:15;;;;;;;;;;;;;;;;;;5044190;28;20376;-66
2021/04/03 07:50:42;;;;;;;;;;;;;;;;;;5047170;28;19933;-66
2021/04/03 07:53:09;;;;;;;;;;;;;;;;;;5052981;28;19925;-66
2021/04/03 07:55:35;;;;;;;;;;;;;;;;;;5041744;28;19925;-66
2021/04/03 07:58:02;;;;;;;;;;;;;;;;;;5049923;28;19972;-66
2021/04/03 08:00:28;;;;;;;;;;;;;;;;;;5039062;28;20012;-65
2021/04/03 08:02:55;;;;;;;;;;;;;;;;;;5044676;28;19928;-65
2021/04/03 08:05:21;;;;;;;;;;;;;;;;;;5045704;28;19929;-66
2021/04/03 08:07:48;;;;;;;;;;;;;;;;;;5049635;28;19977;-66
2021/04/03 08:10:14;;;;;;;;;;;;;;;;;;5050264;28;20008;-67
2021/04/03 08:12:41;;;;;;;;;;;;;;;;;;5041941;28;19936;-66
2021/04/03 08:15:07;;;;;;;;;;;;;;;;;;5046468;28;19947;-65
2021/04/03 08:17:34;;;;;;;;;;;;;;;;;;5047180;28;19925;-66
2021/04/03 08:20:00;;;;;;;;;;;;;;;;;;5043224;28;20299;-66
2021/04/03 08:22:27;;;;;;;;;;;;;;;;;;5040534;28;19925;-66
2021/04/03 08:24:53;;;;;;;;;;;;;;;;;;5045100;28;19953;-65
2021/04/03 08:27:20;;;;;;;;;;;;;;;;;;5039009;28;20399;-67
2021/04/03 08:29:46;;;;;;;;;;;;;;;;;;5041540;28;20391;-67
2021/04/03 08:32:13;;;;;;;;;;;;;;;;;;5049148;28;19931;-67
2021/04/03 08:34:39;;;;;;;;;;;;;;;;;;5050118;28;20011;-67
2021/04/03 08:37:06;;;;;;;;;;;;;;;;;;5043270;28;20011;-65
2021/04/03 08:39:34;;;;;;;;;;;;;;;;;;5048957;28;19939;-66
2021/04/03 08:42:01;;;;;;;;;;;;;;;;;;5046855;28;20216;-66
2021/04/03 08:44:27;;;;;;;;;;;;;;;;;;5047328;28;20308;-67
2021/04/03 08:46:54;;;;;;;;;;;;;;;;;;5043509;28;19976;-67
2021/04/03 08:49:20;;;;;;;;;;;;;;;;;;5049923;28;19935;-65
2021/04/03 08:51:46;;;;;;;;;;;;;;;;;;5047669;28;19932;-66
2021/04/03 08:54:13;;;;;;;;;;;;;;;;;;5049510;28;19931;-66
2021/04/03 08:56:39;;;;;;;;;;;;;;;;;;5043656;28;20427;-66
2021/04/03 08:59:06;;;;;;;;;;;;;;;;;;5041392;28;20397;-66
2021/04/03 09:01:32;;;;;;;;;;;;;;;;;;5045216;28;19925;-67
2021/04/03 09:04:02;;;;;;;;;;;;;;;;;;5040362;28;19926;-65
2021/04/03 09:06:28;;;;;;;;;;;;;;;;;;5047119;28;20389;-67
2021/04/03 09:08:55;;;;;;;;;;;;;;;;;;5043825;28;19940;-66
2021/04/03 09:11:21;;;;;;;;;;;;;;;;;;5041147;28;19931;-66
2021/04/03 09:13:48;;;;;;;;;;;;;;;;;;5042228;28;19959;-67
2021/04/03 09:16:14;;;;;;;;;;;;;;;;;;5042946;28;19929;-67
2021/04/03 09:18:41;;;;;;;;;;;;;;;;;;5045486;28;19929;-67
2021/04/03 09:21:07;;;;;;;;;;;;;;;;;;5046760;28;19940;-65
2021/04/03 09:23:34;;;;;;;;;;;;;;;;;;5043333;28;20301;-65
2021/04/03 09:26:00;;;;;;;;;;;;;;;;;;5044128;28;19932;-66
2021/04/03 09:28:27;;;;;;;;;;;;;;;;;;5045869;28;19931;-66
2021/04/03 09:30:53;;;;;;;;;;;;;;;;;;5045041;28;20343;-66
2021/04/03 09:33:21;;;;;;;;;;;;;;;;;;5044093;28;20368;-66
2021/04/03 09:35:47;;;;;;;;;;;;;;;;;;5039708;28;20004;-67
2021/04/03 09:38:14;;;;;;;;;;;;;;;;;;5042500;28;19933;-66
2021/04/03 09:40:42;;;;;;;;;;;;;;;;;;5041132;28;19932;-65
2021/04/03 09:43:08;;;;;;;;;;;;;;;;;;5046019;28;19924;-65
2021/04/03 09:45:37;;;;;;;;;;;;;;;;;;5044910;28;20027;-66
2021/04/03 09:48:03;;;;;;;;;;;;;;;;;;5039434;28;19925;-65
2021/04/03 09:50:30;;;;;;;;;;;;;;;;;;5044445;28;19929;-64
2021/04/03 09:52:56;;;;;;;;;;;;;;;;;;5048839;28;19928;-65
2021/04/03 09:55:23;;;;;;;;;;;;;;;;;;5042644;28;20299;-64
2021/04/03 09:57:50;;;;;;;;;;;;;;;;;;5039952;28;19925;-64
2021/04/03 10:00:17;;;;;;;;;;;;;;;;;;5046922;28;19972;-65
2021/04/03 10:02:43;;;;;;;;;;;;;;;;;;5038665;28;19924;-65
2021/04/03 10:05:12;;;;;;;;;;;;;;;;;;5039138;28;20040;-64
2021/04/03 10:07:38;;;;;;;;;;;;;;;;;;5037927;28;20010;-66
2021/04/03 10:10:05;;;;;;;;;;;;;;;;;;5089051;22;20031;-65
2021/04/03 10:12:31;;;;;;;;;;;;;;;;;;5066788;28;19924;-65
2021/04/03 10:14:58;;;;;;;;;;;;;;;;;;5069200;28;20280;-66
2021/04/03 10:17:24;;;;;;;;;;;;;;;;;;5059029;28;20031;-66
2021/04/03 10:19:51;;;;;;;;;;;;;;;;;;5054090;28;20008;-66
2021/04/03 10:22:20;;;;;;;;;;;;;;;;;;5044796;28;19940;-64
2021/04/03 10:24:46;;;;;;;;;;;;;;;;;;5051015;28;19939;-66
2021/04/03 10:27:13;;;;;;;;;;;;;;;;;;5049708;28;19932;-66
2021/04/03 10:29:39;;;;;;;;;;;;;;;;;;5045853;28;19924;-66
2021/04/03 10:32:06;;;;;;;;;;;;;;;;;;5042634;28;20460;-65
2021/04/03 10:34:32;;;;;;;;;;;;;;;;;;5044404;28;20377;-66
2021/04/03 10:36:59;;;;;;;;;;;;;;;;;;5040055;28;19983;-63
2021/04/03 10:39:25;;;;;;;;;;;;;;;;;;5042828;28;20389;-65
2021/04/03 10:41:52;;;;;;;;;;;;;;;;;;5043184;28;19924;-65
2021/04/03 10:44:18;;;;;;;;;;;;;;;;;;5045716;28;19925;-64
2021/04/03 10:46:45;;;;;;;;;;;;;;;;;;5044227;28;19932;-65
2021/04/03 10:49:11;;;;;;;;;;;;;;;;;;5040009;28;19936;-65
2021/04/03 10:51:38;;;;;;;;;;;;;;;;;;5050747;28;20176;-67
2021/04/03 10:54:05;;;;;;;;;;;;;;;;;;5049319;28;20023;-63
2021/04/03 10:56:31;;;;;;;;;;;;;;;;;;5043906;28;20008;-66
2021/04/03 10:58:58;;;;;;;;;;;;;;;;;;5040928;28;19925;-65
2021/04/03 11:01:25;;;;;;;;;;;;;;;;;;5041006;28;19932;-67
2021/04/03 11:03:51;;;;;;;;;;;;;;;;;;5044630;28;20016;-67
2021/04/03 11:06:18;;;;;;;;;;;;;;;;;;5040480;28;20407;-65
2021/04/03 11:08:44;;;;;;;;;;;;;;;;;;5040743;28;19983;-67
2021/04/03 11:11:11;;;;;;;;;;;;;;;;;;5042623;28;19954;-67
2021/04/03 11:13:37;;;;;;;;;;;;;;;;;;5042850;28;20027;-65
2021/04/03 11:16:04;;;;;;;;;;;;;;;;;;5043591;28;19955;-64
2021/04/03 11:18:31;;;;;;;;;;;;;;;;;;5042447;28;19932;-66
2021/04/03 11:20:57;;;;;;;;;;;;;;;;;;5045040;28;20015;-68
2021/04/03 11:23:24;;;;;;;;;;;;;;;;;;5043263;28;20015;-65
2021/04/03 11:25:50;;;;;;;;;;;;;;;;;;5049928;28;20015;-66
2021/04/03 11:28:17;;;;;;;;;;;;;;;;;;5040356;28;19933;-65
2021/04/03 11:30:43;;;;;;;;;;;;;;;;;;5048409;28;19979;-65
2021/04/03 11:33:10;;;;;;;;;;;;;;;;;;5048106;28;20134;-65
2021/04/03 11:35:36;;;;;;;;;;;;;;;;;;5050053;28;19924;-66
2021/04/03 11:38:03;;;;;;;;;;;;;;;;;;5045126;28;20440;-68
2021/04/03 11:40:29;;;;;;;;;;;;;;;;;;5046324;28;20004;-65
2021/04/03 11:42:56;;;;;;;;;;;;;;;;;;5048138;28;19933;-65
2021/04/03 11:45:22;;;;;;;;;;;;;;;;;;5043356;28;19924;-65
2021/04/03 11:47:49;;;;;;;;;;;;;;;;;;5052533;28;19968;-65
2021/04/03 11:50:15;;;;;;;;;;;;;;;;;;5051965;28;19936;-67
2021/04/03 11:52:42;;;;;;;;;;;;;;;;;;5056079;28;20010;-67
2021/04/03 11:55:08;;;;;;;;;;;;;;;;;;5050154;28;19967;-65
2021/04/03 11:57:35;;;;;;;;;;;;;;;;;;5045619;28;19925;-65
2021/04/03 12:00:02;;;;;;;;;;;;;;;;;;5049223;28;19932;-66
2021/04/03 12:02:28;;;;;;;;;;;;;;;;;;5046946;28;19968;-66
2021/04/03 12:04:57;;;;;;;;;;;;;;;;;;5052939;28;19949;-65
2021/04/03 12:07:23;;;;;;;;;;;;;;;;;;5047906;28;20391;-64
2021/04/03 12:09:49;;;;;;;;;;;;;;;;;;5050114;28;20372;-64
2021/04/03 12:12:16;;;;;;;;;;;;;;;;;;5053102;28;19967;-65
2021/04/03 12:14:42;;;;;;;;;;;;;;;;;;5047015;28;20303;-66
2021/04/03 12:17:09;;;;;;;;;;;;;;;;;;5051083;28;20332;-66
2021/04/03 12:19:36;;;;;;;;;;;;;;;;;;5047219;28;19933;-65
2021/04/03 12:22:02;;;;;;;;;;;;;;;;;;5047422;28;19925;-66
2021/04/03 12:24:29;;;;;;;;;;;;;;;;;;5046163;28;20425;-65
2021/04/03 12:26:55;;;;;;;;;;;;;;;;;;5047888;28;20411;-65
2021/04/03 12:29:22;;;;;;;;;;;;;;;;;;5045658;28;19944;-64
2021/04/03 12:31:48;;;;;;;;;;;;;;;;;;5047898;28;20341;-65
2021/04/03 12:34:15;;;;;;;;;;;;;;;;;;5047311;28;19943;-65
2021/04/03 12:36:41;;;;;;;;;;;;;;;;;;5042862;28;19947;-63
2021/04/03 12:39:08;;;;;;;;;;;;;;;;;;5049634;28;20401;-64
2021/04/03 12:41:34;;;;;;;;;;;;;;;;;;5049172;28;20058;-65
2021/04/03 12:44:01;;;;;;;;;;;;;;;;;;5044472;28;19967;-66
2021/04/03 12:46:27;;;;;;;;;;;;;;;;;;5048032;28;19939;-65
2021/04/03 12:48:54;;;;;;;;;;;;;;;;;;5045707;28;19925;-64
2021/04/03 12:51:20;;;;;;;;;;;;;;;;;;5045000;28;19935;-65
2021/04/03 12:53:47;;;;;;;;;;;;;;;;;;5044462;28;19942;-63
2021/04/03 12:56:13;;;;;;;;;;;;;;;;;;5046917;28;19931;-65
2021/04/03 12:58:40;;;;;;;;;;;;;;;;;;5045170;28;19929;-63
2021/04/03 13:01:06;;;;;;;;;;;;;;;;;;5041476;28;19929;-65
2021/04/03 13:03:33;;;;;;;;;;;;;;;;;;5042783;28;19965;-64
2021/04/03 13:05:59;;;;;;;;;;;;;;;;;;5049027;28;19930;-63
2021/04/03 13:08:26;;;;;;;;;;;;;;;;;;5042953;28;20011;-65
2021/04/03 13:10:53;;;;;;;;;;;;;;;;;;5045357;28;19971;-66
2021/04/03 13:13:19;;;;;;;;;;;;;;;;;;5049390;28;19924;-65
2021/04/03 13:15:46;;;;;;;;;;;;;;;;;;5051550;28;19933;-67
2021/04/03 13:18:12;;;;;;;;;;;;;;;;;;5053790;28;20412;-64
2021/04/03 13:20:39;;;;;;;;;;;;;;;;;;5048403;28;19939;-64
2021/04/03 13:23:06;;;;;;;;;;;;;;;;;;5047594;28;20132;-64
2021/04/03 13:25:33;;;;;;;;;;;;;;;;;;5048100;28;20386;-66
2021/04/03 13:28:00;;;;;;;;;;;;;;;;;;5049452;28;20408;-64
2021/04/03 13:30:26;;;;;;;;;;;;;;;;;;5052716;28;20319;-66
2021/04/03 13:32:53;;;;;;;;;;;;;;;;;;5051720;28;19967;-63
2021/04/03 13:35:19;;;;;;;;;;;;;;;;;;5049636;28;19947;-65
2021/04/03 13:37:46;;;;;;;;;;;;;;;;;;5046390;28;19924;-64
2021/04/03 13:40:12;;;;;;;;;;;;;;;;;;5048317;28;20019;-65
2021/04/03 13:42:41;;;;;;;;;;;;;;;;;;5054778;28;19979;-66
2021/04/03 13:45:08;;;;;;;;;;;;;;;;;;5045268;28;19929;-65
2021/04/03 13:47:34;;;;;;;;;;;;;;;;;;5036934;28;19943;-66
2021/04/03 13:50:01;;;;;;;;;;;;;;;;;;5038567;28;19925;-65
2021/04/03 13:52:27;;;;;;;;;;;;;;;;;;5040544;28;19975;-63
2021/04/03 13:54:54;;;;;;;;;;;;;;;;;;5043614;28;20015;-62
2021/04/03 13:57:20;;;;;;;;;;;;;;;;;;5035522;28;20026;-63
2021/04/03 13:59:47;;;;;;;;;;;;;;;;;;5037858;28;20012;-63
2021/04/03 14:02:13;;;;;;;;;;;;;;;;;;5050986;28;19931;-63
2021/04/03 14:04:40;;;;;;;;;;;;;;;;;;5047765;28;20000;-64
2021/04/03 14:07:07;;;;;;;;;;;;;;;;;;5054074;28;19933;-63
2021/04/03 14:09:34;;;;;;;;;;;;;;;;;;5037955;28;19933;-62
2021/04/03 14:12:00;;;;;;;;;;;;;;;;;;5041843;28;20682;-64
2021/04/03 14:14:27;;;;;;;;;;;;;;;;;;5059069;28;20384;-64
2021/04/03 14:16:53;;;;;;;;;;;;;;;;;;5052233;28;19935;-64
2021/04/03 14:19:20;;;;;;;;;;;;;;;;;;5047773;28;19983;-63
2021/04/03 14:21:47;;;;;;;;;;;;;;;;;;5045245;28;19932;-64
2021/04/03 14:24:13;;;;;;;;;;;;;;;;;;5048684;28;19944;-64
2021/04/03 14:26:40;;;;;;;;;;;;;;;;;;5052625;28;19971;-63
2021/04/03 14:29:06;;;;;;;;;;;;;;;;;;5053605;28;20129;-63
2021/04/03 14:31:33;;;;;;;;;;;;;;;;;;5057276;28;19925;-61
2021/04/03 14:34:00;;;;;;;;;;;;;;;;;;5045856;28;19924;-63
2021/04/03 14:36:26;;;;;;;;;;;;;;;;;;5039922;28;20298;-64
2021/04/03 14:38:53;;;;;;;;;;;;;;;;;;5050584;28;19939;-64
2021/04/03 14:41:19;;;;;;;;;;;;;;;;;;5049990;28;19988;-64
2021/04/03 14:43:46;;;;;;;;;;;;;;;;;;5048017;28;19931;-64
2021/04/03 14:46:12;;;;;;;;;;;;;;;;;;5045532;28;19924;-63
2021/04/03 14:48:39;;;;;;;;;;;;;;;;;;5047911;28;19924;-64
2021/04/03 14:51:05;;;;;;;;;;;;;;;;;;5045718;28;19929;-66
2021/04/03 14:53:32;;;;;;;;;;;;;;;;;;5052370;28;20404;-65
2021/04/03 14:55:58;;;;;;;;;;;;;;;;;;5047724;28;19928;-65
2021/04/03 14:58:25;;;;;;;;;;;;;;;;;;5045364;28;19933;-63
2021/04/03 15:00:51;;;;;;;;;;;;;;;;;;5045522;28;19972;-63
2021/04/03 15:03:18;;;;;;;;;;;;;;;;;;5047554;28;20336;-65
2021/04/03 15:05:44;;;;;;;;;;;;;;;;;;5041908;28;20495;-65
2021/04/03 15:08:11;;;;;;;;;;;;;;;;;;5040331;28;19929;-64
2021/04/03 15:10:39;;;;;;;;;;;;;;;;;;5042785;28;19933;-65
2021/04/03 15:13:05;;;;;;;;;;;;;;;;;;5051384;28;19944;-64
2021/04/03 15:15:32;;;;;;;;;;;;;;;;;;5048934;28;19944;-62
2021/04/03 15:17:59;;;;;;;;;;;;;;;;;;5044475;28;20400;-63
2021/04/03 15:20:25;;;;;;;;;;;;;;;;;;5048084;28;19971;-62
2021/04/03 15:22:52;;;;;;;;;;;;;;;;;;5051511;28;20365;-61
2021/04/03 15:25:19;;;;;;;;;;;;;;;;;;5048553;28;19935;-66
2021/04/03 15:27:45;;;;;;;;;;;;;;;;;;5047795;28;20024;-64
2021/04/03 15:30:12;;;;;;;;;;;;;;;;;;5050601;28;20008;-62
2021/04/03 15:32:38;;;;;;;;;;;;;;;;;;5053363;28;20032;-62
2021/04/03 15:35:05;;;;;;;;;;;;;;;;;;5049249;28;19979;-65
2021/04/03 15:37:32;;;;;;;;;;;;;;;;;;5047409;28;20003;-65
2021/04/03 15:39:58;;;;;;;;;;;;;;;;;;5055395;28;19974;-65
2021/04/03 15:42:25;;;;;;;;;;;;;;;;;;5052912;28;19925;-64
2021/04/03 15:44:51;;;;;;;;;;;;;;;;;;5047185;28;19935;-64
2021/04/03 15:47:21;;;;;;;;;;;;;;;;;;5051072;28;19925;-63
2021/04/03 15:49:47;;;;;;;;;;;;;;;;;;5058895;28;19939;-65
2021/04/03 15:52:14;;;;;;;;;;;;;;;;;;5060570;28;19964;-64
2021/04/03 15:54:40;;;;;;;;;;;;;;;;;;5057657;28;19929;-64
2021/04/03 15:57:12;;;;;;;;;;;;;;;;;;5053101;28;19943;-65
2021/04/03 15:59:38;;;;;;;;;;;;;;;;;;5051346;28;20273;-65
2021/04/03 16:02:05;;;;;;;;;;;;;;;;;;5055929;28;19925;-66
2021/04/03 16:04:31;;;;;;;;;;;;;;;;;;5050787;28;20015;-63
2021/04/03 16:06:58;;;;;;;;;;;;;;;;;;5055180;28;20003;-63
2021/04/03 16:09:24;;;;;;;;;;;;;;;;;;5067665;22;19972;-64
2021/04/03 16:11:51;;;;;;;;;;;;;;;;;;5065167;28;20003;-65
2021/04/03 16:14:17;;;;;;;;;;;;;;;;;;5058642;28;19924;-65
2021/04/03 16:16:44;;;;;;;;;;;;;;;;;;5068640;28;20022;-64
2021/04/03 16:19:10;;;;;;;;;;;;;;;;;;5068760;28;20007;-64
2021/04/03 16:21:37;;;;;;;;;;;;;;;;;;5070664;28;19931;-64
2021/04/03 16:24:03;;;;;;;;;;;;;;;;;;5068420;28;19930;-64
2021/04/03 16:26:30;;;;;;;;;;;;;;;;;;5068545;28;20988;-64
2021/04/03 16:28:56;;;;;;;;;;;;;;;;;;5067311;28;19931;-64
2021/04/03 16:31:23;;;;;;;;;;;;;;;;;;5068108;28;20303;-64
2021/04/03 16:33:49;;;;;;;;;;;;;;;;;;5069803;28;20467;-64
2021/04/03 16:36:16;;;;;;;;;;;;;;;;;;5069227;28;20022;-64
2021/04/03 16:38:42;;;;;;;;;;;;;;;;;;5069114;28;20024;-64
2021/04/03 16:41:09;;;;;;;;;;;;;;;;;;5068195;28;20011;-64